createdAt,value
2023-02-23T00:02:18.360Z,44.77
2023-02-23T00:04:50.294Z,37.30
2023-02-23T00:07:20.049Z,40.13
2023-02-23T00:09:47.331Z,40.37
2023-02-23T00:12:16.879Z,32.77
2023-02-23T00:14:49.028Z,30.73
2023-02-23T00:17:17.528Z,41.23
2023-02-23T00:19:49.712Z,37.50
2023-02-23T00:22:16.884Z,35.80
2023-02-23T00:24:47.770Z,36.43
2023-02-23T00:27:19.023Z,34.00
2023-02-23T00:29:49.791Z,39.97
2023-02-23T00:32:31.144Z,35.63
2023-02-23T00:34:58.508Z,33.33
2023-02-23T00:37:29.984Z,35.07
2023-02-23T00:39:57.416Z,35.10
2023-02-23T00:42:29.698Z,36.67
2023-02-23T00:44:57.275Z,35.03
2023-02-23T00:47:26.566Z,35.77
2023-02-23T00:49:53.553Z,37.20
2023-02-23T00:52:23.624Z,35.30
2023-02-23T00:54:51.470Z,40.73
2023-02-23T00:57:22.281Z,33.00
2023-02-23T00:59:49.257Z,35.40
2023-02-23T01:02:16.215Z,39.20
2023-02-23T01:04:43.172Z,42.07
2023-02-23T01:07:12.895Z,32.63
2023-02-23T01:09:40.026Z,35.93
2023-02-23T01:12:07.665Z,33.23
2023-02-23T01:14:35.841Z,38.90
2023-02-23T01:17:07.771Z,38.67
2023-02-23T01:19:39.800Z,33.17
2023-02-23T01:22:09.396Z,39.27
2023-02-23T01:24:38.784Z,35.47
2023-02-23T01:27:08.015Z,37.23
2023-02-23T01:29:35.069Z,35.57
2023-02-23T01:32:05.053Z,41.30
2023-02-23T01:34:32.920Z,40.70
2023-02-23T01:36:59.922Z,37.33
2023-02-23T01:39:27.098Z,39.93
2023-02-23T01:41:55.555Z,44.73
2023-02-23T01:44:22.401Z,37.10
2023-02-23T01:46:50.289Z,40.53
2023-02-23T01:49:25.961Z,52.40
2023-02-23T01:52:03.745Z,42.33
2023-02-23T01:54:50.400Z,42.90
2023-02-23T01:57:24.719Z,37.90
2023-02-23T01:59:54.844Z,30.17
2023-02-23T02:02:33.539Z,46.23
2023-02-23T02:05:06.450Z,44.07
2023-02-23T02:07:40.065Z,38.77
2023-02-23T02:10:11.536Z,39.93
2023-02-23T02:12:45.992Z,35.43
2023-02-23T02:15:18.808Z,40.10
2023-02-23T02:18:18.749Z,32.80
2023-02-23T02:21:11.665Z,43.57
2023-02-23T02:24:08.843Z,38.77
2023-02-23T02:26:47.810Z,47.10
2023-02-23T02:29:39.754Z,55.87
2023-02-23T02:32:24.764Z,37.70
2023-02-23T02:35:46.695Z,46.20
2023-02-23T02:38:50.690Z,33.87
2023-02-23T02:41:42.356Z,53.30
2023-02-23T02:44:31.028Z,44.40
2023-02-23T02:47:09.574Z,37.53
2023-02-23T02:50:06.942Z,50.73
2023-02-23T02:52:52.657Z,39.50
2023-02-23T02:55:26.464Z,51.37
2023-02-23T02:57:58.122Z,41.87
2023-02-23T03:00:53.943Z,48.17
2023-02-23T03:04:02.821Z,45.27
2023-02-23T03:06:51.387Z,51.27
2023-02-23T03:10:18.160Z,40.70
2023-02-23T03:13:37.712Z,41.67
2023-02-23T03:16:55.438Z,52.83
2023-02-23T03:20:24.263Z,42.50
2023-02-23T03:24:09.907Z,48.07
2023-02-23T03:27:17.333Z,39.97
2023-02-23T03:30:12.247Z,45.77
2023-02-23T03:33:11.575Z,48.27
2023-02-23T03:36:29.117Z,49.13
2023-02-23T03:39:31.638Z,52.83
2023-02-23T03:42:21.378Z,66.83
2023-02-23T03:45:08.970Z,61.43
2023-02-23T03:48:00.635Z,68.53
2023-02-23T03:51:05.823Z,173.10
2023-02-23T03:54:04.937Z,76.67
2023-02-23T03:56:56.040Z,88.20
2023-02-23T03:59:49.145Z,64.47
2023-02-23T04:02:38.254Z,89.90
2023-02-23T04:05:30.525Z,101.37
2023-02-23T04:08:19.948Z,85.33
2023-02-23T04:11:15.067Z,81.13
2023-02-23T04:13:44.957Z,150.67
2023-02-23T04:16:12.422Z,171.33
2023-02-23T04:18:45.051Z,123.27
2023-02-23T04:21:14.990Z,201.37
2023-02-23T04:23:43.463Z,173.43
2023-02-23T04:26:10.472Z,226.17
2023-02-23T04:28:39.934Z,179.60
2023-02-23T04:31:07.090Z,215.13
2023-02-23T04:33:36.432Z,102.60
2023-02-23T04:36:03.590Z,172.50
2023-02-23T04:38:30.630Z,113.53
2023-02-23T04:40:57.652Z,145.00
2023-02-23T04:43:24.616Z,153.23
2023-02-23T04:45:54.184Z,176.60
2023-02-23T04:48:26.847Z,180.97
2023-02-23T04:50:54.980Z,94.73
2023-02-23T04:53:25.293Z,176.27
2023-02-23T04:55:52.527Z,206.77
2023-02-23T04:58:21.849Z,227.13
2023-02-23T05:00:49.757Z,173.60
2023-02-23T05:03:17.650Z,152.73
2023-02-23T05:05:45.292Z,100.83
2023-02-23T05:08:12.505Z,103.90
2023-02-23T05:10:41.620Z,100.93
2023-02-23T05:13:11.532Z,113.67
2023-02-23T05:15:41.990Z,139.97
2023-02-23T05:18:09.386Z,103.47
2023-02-23T05:20:36.784Z,97.03
2023-02-23T05:23:03.914Z,90.80
2023-02-23T05:25:31.028Z,77.97
2023-02-23T05:27:58.092Z,173.87
2023-02-23T05:30:25.133Z,100.70
2023-02-23T05:32:52.189Z,58.00
2023-02-23T05:35:21.367Z,93.53
2023-02-23T05:37:50.572Z,101.60
2023-02-23T05:40:20.794Z,100.07
2023-02-23T05:42:50.827Z,120.83
2023-02-23T05:45:18.004Z,64.73
2023-02-23T05:47:45.066Z,74.73
2023-02-23T05:50:14.549Z,56.70
2023-02-23T05:52:44.368Z,75.63
2023-02-23T05:55:15.181Z,66.53
2023-02-23T05:57:42.872Z,65.53
2023-02-23T06:00:13.420Z,65.37
2023-02-23T06:02:41.696Z,53.67
2023-02-23T06:05:11.371Z,75.13
2023-02-23T06:07:38.712Z,57.00
2023-02-23T06:10:06.622Z,59.43
2023-02-23T06:12:33.654Z,62.87
2023-02-23T06:15:03.443Z,57.00
2023-02-23T06:17:33.003Z,61.30
2023-02-23T06:20:03.475Z,54.50
2023-02-23T06:22:31.044Z,57.03
2023-02-23T06:25:04.994Z,70.63
2023-02-23T06:27:34.344Z,63.40
2023-02-23T06:30:03.324Z,67.07
2023-02-23T06:32:30.354Z,55.47
2023-02-23T06:34:57.285Z,55.13
2023-02-23T06:37:27.067Z,63.43
2023-02-23T06:39:56.487Z,65.13
2023-02-23T06:42:24.275Z,61.70
2023-02-23T06:44:53.696Z,67.33
2023-02-23T06:47:20.681Z,66.67
2023-02-23T06:49:47.832Z,75.77
2023-02-23T06:52:17.445Z,68.83
2023-02-23T06:54:45.336Z,72.53
2023-02-23T06:57:17.049Z,85.17
2023-02-23T06:59:43.913Z,80.13
2023-02-23T07:02:14.454Z,85.17
2023-02-23T07:04:41.342Z,91.47
2023-02-23T07:07:08.294Z,71.80
2023-02-23T07:09:35.334Z,67.97
2023-02-23T07:12:07.167Z,75.77
2023-02-23T07:14:37.666Z,77.87
2023-02-23T07:17:05.423Z,88.27
2023-02-23T07:19:35.284Z,83.63
2023-02-23T07:22:03.535Z,82.77
2023-02-23T07:24:30.771Z,76.63
2023-02-23T07:26:57.937Z,78.23
2023-02-23T07:29:28.365Z,77.17
2023-02-23T07:32:00.374Z,75.27
2023-02-23T07:34:27.479Z,79.60
2023-02-23T07:36:58.990Z,82.83
2023-02-23T07:39:25.937Z,85.80
2023-02-23T07:41:57.491Z,87.20
2023-02-23T07:44:28.951Z,94.50
2023-02-23T07:46:56.450Z,99.63
2023-02-23T07:49:23.385Z,89.27
2023-02-23T07:51:55.446Z,91.03
2023-02-23T07:54:26.070Z,103.63
2023-02-23T07:56:53.459Z,94.83
2023-02-23T07:59:24.987Z,89.33
2023-02-23T08:01:52.436Z,92.53
2023-02-23T08:04:22.642Z,90.07
2023-02-23T08:06:52.295Z,88.83
2023-02-23T08:09:21.737Z,104.07
2023-02-23T08:11:51.890Z,89.80
2023-02-23T08:14:22.033Z,89.30
2023-02-23T08:16:51.805Z,90.50
2023-02-23T08:19:23.873Z,104.07
2023-02-23T08:21:51.115Z,93.17
2023-02-23T08:24:20.783Z,94.57
2023-02-23T08:26:50.485Z,84.27
2023-02-23T08:29:17.612Z,84.70
2023-02-23T08:31:45.084Z,88.10
2023-02-23T08:34:12.250Z,97.93
2023-02-23T08:36:40.568Z,95.00
2023-02-23T08:39:10.017Z,86.63
2023-02-23T08:41:39.708Z,85.50
2023-02-23T08:44:06.759Z,121.70
2023-02-23T08:46:34.290Z,88.40
2023-02-23T08:49:01.255Z,94.07
2023-02-23T08:51:28.197Z,87.47
2023-02-23T08:53:57.542Z,85.97
2023-02-23T08:56:27.133Z,90.73
2023-02-23T08:58:54.281Z,80.93
2023-02-23T09:01:24.616Z,95.87
2023-02-23T09:03:51.533Z,85.00
2023-02-23T09:06:22.278Z,94.33
2023-02-23T09:08:49.733Z,82.90
2023-02-23T09:11:17.043Z,85.17
2023-02-23T09:13:44.678Z,80.90
2023-02-23T09:16:11.799Z,80.63
2023-02-23T09:18:44.248Z,73.07
2023-02-23T09:21:19.145Z,81.53
2023-02-23T09:23:48.237Z,81.27
2023-02-23T09:26:18.896Z,85.60
2023-02-23T09:28:46.504Z,80.00
2023-02-23T09:31:18.300Z,71.03
2023-02-23T09:33:45.556Z,65.93
2023-02-23T09:36:20.612Z,67.77
2023-02-23T09:38:55.122Z,65.87
2023-02-23T09:41:51.267Z,66.30
2023-02-23T09:44:48.193Z,63.53
2023-02-23T09:47:32.845Z,62.93
2023-02-23T09:50:09.469Z,62.10
2023-02-23T09:52:47.672Z,59.03
2023-02-23T09:55:15.166Z,58.20
2023-02-23T09:57:49.959Z,59.60
2023-02-23T10:00:27.737Z,54.57
2023-02-23T10:03:25.033Z,50.20
2023-02-23T10:06:03.232Z,51.63
2023-02-23T10:09:14.489Z,46.50
2023-02-23T10:12:08.355Z,51.77
2023-02-23T10:14:56.213Z,45.00
2023-02-23T10:17:31.849Z,42.73
2023-02-23T10:20:29.426Z,45.53
2023-02-23T10:23:04.052Z,43.90
2023-02-23T10:25:36.075Z,39.10
2023-02-23T10:28:05.497Z,35.67
2023-02-23T10:30:34.714Z,54.73
2023-02-23T10:33:47.474Z,42.27
2023-02-23T10:36:19.681Z,40.47
2023-02-23T10:38:47.346Z,42.97
2023-02-23T10:41:15.035Z,38.53
2023-02-23T10:43:42.326Z,32.80
2023-02-23T10:46:24.373Z,34.43
2023-02-23T10:48:57.077Z,32.30
2023-02-23T10:51:32.710Z,28.90
2023-02-23T10:54:08.064Z,33.07
2023-02-23T10:56:50.154Z,30.73
2023-02-23T10:59:21.621Z,33.20
2023-02-23T11:02:01.358Z,29.47
2023-02-23T11:04:35.074Z,29.07
2023-02-23T11:07:17.865Z,39.87
2023-02-23T11:09:48.485Z,64.10
2023-02-23T11:12:23.333Z,48.80
2023-02-23T11:14:53.199Z,36.73
2023-02-23T11:17:28.699Z,37.50
2023-02-23T11:20:25.528Z,30.03
2023-02-23T11:22:52.565Z,20.93
2023-02-23T11:25:31.123Z,33.40
2023-02-23T11:27:58.890Z,41.70
2023-02-23T11:30:42.940Z,35.60
2023-02-23T11:33:21.676Z,29.23
2023-02-23T11:35:48.582Z,36.47
2023-02-23T11:38:30.601Z,38.77
2023-02-23T11:41:07.295Z,39.53
2023-02-23T11:43:36.070Z,40.90
2023-02-23T11:46:06.105Z,49.13
2023-02-23T11:48:44.051Z,52.33
2023-02-23T11:51:11.122Z,48.87
2023-02-23T11:53:46.703Z,50.33
2023-02-23T11:56:22.668Z,55.30
2023-02-23T11:58:55.858Z,56.20
2023-02-23T12:01:49.513Z,63.13
2023-02-23T12:04:37.069Z,69.23
2023-02-23T12:07:41.638Z,81.87
2023-02-23T12:10:33.004Z,99.43
2023-02-23T12:13:17.626Z,104.73
2023-02-23T12:15:54.769Z,95.97
2023-02-23T12:18:43.325Z,119.83
2023-02-23T12:21:41.192Z,114.60
2023-02-23T12:24:26.809Z,123.00
2023-02-23T12:27:35.202Z,111.97
2023-02-23T12:30:41.145Z,115.57
2023-02-23T12:33:30.043Z,102.80
2023-02-23T12:36:04.141Z,98.70
2023-02-23T12:38:56.900Z,115.87
2023-02-23T12:41:37.846Z,114.67
2023-02-23T12:44:17.389Z,112.83
2023-02-23T12:46:54.421Z,109.87
2023-02-23T12:49:45.355Z,109.93
2023-02-23T12:52:29.436Z,108.10
2023-02-23T12:55:01.211Z,109.33
2023-02-23T12:57:54.896Z,108.83
2023-02-23T13:00:58.216Z,111.50
2023-02-23T13:03:46.708Z,124.97
2023-02-23T13:06:37.839Z,120.33
2023-02-23T13:09:19.649Z,123.47
2023-02-23T13:12:53.830Z,116.50
2023-02-23T13:15:45.645Z,133.07
2023-02-23T13:18:24.654Z,129.43
2023-02-23T13:21:21.891Z,130.40
2023-02-23T13:24:19.011Z,124.37
2023-02-23T13:26:59.252Z,131.60
2023-02-23T13:29:48.693Z,136.50
2023-02-23T13:32:32.065Z,138.57
2023-02-23T13:35:01.841Z,135.60
2023-02-23T13:37:43.257Z,141.57
2023-02-23T13:40:43.187Z,143.27
2023-02-23T13:43:34.865Z,143.93
2023-02-23T13:46:26.424Z,144.27
2023-02-23T13:49:02.374Z,139.67
2023-02-23T13:51:52.151Z,126.33
2023-02-23T13:54:25.132Z,129.03
2023-02-23T13:56:59.824Z,126.10
2023-02-23T13:59:43.955Z,131.43
2023-02-23T14:02:46.736Z,118.57
2023-02-23T14:05:15.624Z,126.40
2023-02-23T14:07:46.254Z,116.60
2023-02-23T14:10:24.861Z,118.40
2023-02-23T14:13:48.797Z,122.53
2023-02-23T14:16:22.656Z,120.73
2023-02-23T14:19:07.831Z,114.90
2023-02-23T14:21:52.278Z,128.40
2023-02-23T14:24:25.096Z,114.50
2023-02-23T14:27:40.427Z,124.23
2023-02-23T14:30:11.018Z,115.03
2023-02-23T14:32:46.133Z,135.07
2023-02-23T14:35:34.656Z,121.60
2023-02-23T14:38:11.752Z,121.50
2023-02-23T14:40:46.988Z,108.67
2023-02-23T14:43:49.398Z,111.77
2023-02-23T14:46:26.495Z,124.00
2023-02-23T14:49:21.412Z,118.10
2023-02-23T14:51:58.557Z,131.70
2023-02-23T14:54:31.139Z,115.53
2023-02-23T14:57:04.645Z,112.23
2023-02-23T14:59:42.605Z,119.77
2023-02-23T15:02:18.849Z,110.70
2023-02-23T15:04:48.367Z,121.10
2023-02-23T15:07:32.184Z,119.10
2023-02-23T15:10:03.873Z,106.80
2023-02-23T15:12:39.424Z,128.63
2023-02-23T15:15:23.146Z,126.70
2023-02-23T15:18:01.071Z,116.33
2023-02-23T15:23:04.444Z,121.10
2023-02-23T15:25:41.486Z,124.73
2023-02-23T15:28:25.626Z,114.23
2023-02-23T15:31:00.919Z,113.67
2023-02-23T15:33:31.184Z,113.33
2023-02-23T15:36:23.291Z,107.70
2023-02-23T15:38:57.266Z,112.87
2023-02-23T15:41:36.839Z,104.50
2023-02-23T15:44:20.148Z,109.83
2023-02-23T15:46:54.777Z,105.83
2023-02-23T15:49:25.174Z,106.57
2023-02-23T15:52:03.681Z,98.90
2023-02-23T15:55:06.408Z,111.23
2023-02-23T15:58:01.012Z,109.57
2023-02-23T16:00:44.448Z,114.60
2023-02-23T16:03:33.403Z,102.70
2023-02-23T16:06:08.277Z,108.10
2023-02-23T16:08:36.847Z,105.00
2023-02-23T16:11:19.199Z,99.37
2023-02-23T16:13:47.087Z,103.83
2023-02-23T16:16:20.577Z,99.07
2023-02-23T16:18:54.402Z,105.93
2023-02-23T16:21:25.597Z,102.73
2023-02-23T16:24:05.636Z,105.73
2023-02-23T16:26:41.745Z,99.93
2023-02-23T16:29:18.581Z,103.37
2023-02-23T16:31:59.910Z,96.70
2023-02-23T16:34:37.281Z,112.57
2023-02-23T16:37:20.125Z,105.17
2023-02-23T16:39:48.111Z,108.80
2023-02-23T16:42:30.721Z,96.73
2023-02-23T16:45:01.148Z,97.83
2023-02-23T16:47:41.442Z,97.57
2023-02-23T16:50:24.525Z,100.50
2023-02-23T16:52:53.564Z,100.60
2023-02-23T16:55:27.246Z,94.00
2023-02-23T16:58:05.619Z,100.97
2023-02-23T17:00:34.250Z,85.73
2023-02-23T17:03:06.309Z,84.30
2023-02-23T17:05:35.892Z,83.63
2023-02-23T17:08:02.993Z,92.90
2023-02-23T17:10:35.979Z,66.47
2023-02-23T17:13:11.121Z,79.00
2023-02-23T17:15:53.637Z,74.50
2023-02-23T17:21:02.694Z,54.90
2023-02-23T17:23:50.755Z,48.67
2023-02-23T17:26:23.653Z,45.33
2023-02-23T17:28:51.351Z,44.37
2023-02-23T17:31:20.433Z,38.35
2023-02-23T17:33:50.252Z,37.27
2023-02-23T17:36:20.832Z,33.33
2023-02-23T17:38:50.929Z,27.73
2023-02-23T17:41:20.405Z,35.23
2023-02-23T17:43:49.839Z,34.90
2023-02-23T17:46:19.714Z,32.03
2023-02-23T17:48:49.535Z,24.90
2023-02-23T17:51:24.061Z,31.27
2023-02-23T17:53:51.075Z,25.50
2023-02-23T17:56:19.940Z,27.43
2023-02-23T17:58:50.637Z,23.63
2023-02-23T18:01:20.474Z,33.50
2023-02-23T18:03:48.088Z,41.13
2023-02-23T18:06:17.547Z,53.00
2023-02-23T18:08:47.058Z,52.63
2023-02-23T18:11:18.490Z,79.37
2023-02-23T18:13:51.160Z,69.13
2023-02-23T18:16:19.253Z,38.17
2023-02-23T18:18:48.880Z,48.47
2023-02-23T18:21:20.041Z,58.20
2023-02-23T18:23:50.858Z,50.47
2023-02-23T18:26:23.916Z,52.63
2023-02-23T18:28:54.216Z,38.10
2023-02-23T18:31:25.296Z,72.50
2023-02-23T18:33:56.425Z,63.20
2023-02-23T18:36:30.991Z,47.93
2023-02-23T18:39:04.097Z,55.93
2023-02-23T18:41:31.335Z,48.97
2023-02-23T18:44:02.765Z,58.63
2023-02-23T18:46:32.526Z,52.90
2023-02-23T18:48:59.807Z,41.93
2023-02-23T18:51:26.998Z,45.27
2023-02-23T18:53:54.840Z,42.60
2023-02-23T18:56:28.110Z,28.53
2023-02-23T18:59:01.471Z,43.03
2023-02-23T19:01:42.541Z,32.97
2023-02-23T19:04:10.613Z,38.30
2023-02-23T19:06:40.221Z,46.37
2023-02-23T19:09:12.677Z,61.27
2023-02-23T19:11:41.671Z,29.67
2023-02-23T19:14:18.457Z,32.83
2023-02-23T19:16:52.093Z,25.43
2023-02-23T19:19:19.138Z,31.97
2023-02-23T19:21:48.874Z,31.70
2023-02-23T19:24:16.211Z,27.03
2023-02-23T19:26:43.185Z,38.40
2023-02-23T19:29:12.324Z,44.63
2023-02-23T19:31:42.316Z,21.60
2023-02-23T19:34:11.275Z,41.13
2023-02-23T19:36:38.126Z,39.07
2023-02-23T19:39:16.007Z,34.90
2023-02-23T19:41:45.358Z,32.93
2023-02-23T19:44:12.550Z,20.73
2023-02-23T19:46:44.415Z,29.73
2023-02-23T19:49:15.627Z,32.17
2023-02-23T19:51:44.319Z,41.07
2023-02-23T19:54:12.177Z,31.50
2023-02-23T19:56:39.330Z,25.17
2023-02-23T19:59:06.734Z,32.53
2023-02-23T20:01:33.809Z,36.57
2023-02-23T20:04:06.634Z,41.00
2023-02-23T20:06:40.953Z,20.30
2023-02-23T20:09:10.439Z,18.57
2023-02-23T20:11:37.463Z,43.73
2023-02-23T20:14:08.229Z,29.33
2023-02-23T20:16:35.992Z,27.60
2023-02-23T20:19:05.591Z,23.07
2023-02-23T20:21:32.717Z,25.27
2023-02-23T20:24:03.802Z,22.17
2023-02-23T20:26:35.378Z,34.10
2023-02-23T20:29:11.255Z,31.10
2023-02-23T20:31:41.955Z,24.17
2023-02-23T20:34:11.165Z,24.50
2023-02-23T20:36:40.114Z,48.70
2023-02-23T20:39:09.274Z,24.80
2023-02-23T20:41:36.286Z,26.83
2023-02-23T20:44:03.760Z,34.17
2023-02-23T20:46:30.992Z,24.90
2023-02-23T20:48:59.472Z,34.97
2023-02-23T20:51:27.390Z,20.63
2023-02-23T20:53:57.649Z,20.83
2023-02-23T20:56:32.759Z,24.67
2023-02-23T20:58:59.965Z,31.10
2023-02-23T21:01:29.480Z,29.10
2023-02-23T21:03:56.995Z,31.37
2023-02-23T21:06:26.015Z,26.93
2023-02-23T21:09:02.746Z,25.67
2023-02-23T21:11:32.187Z,24.47
2023-02-23T21:14:02.195Z,22.80
2023-02-23T21:16:32.244Z,29.60
2023-02-23T21:19:05.234Z,28.10
2023-02-23T21:21:47.109Z,18.70
2023-02-23T21:24:19.028Z,36.87
2023-02-23T21:26:48.378Z,32.17
2023-02-23T21:29:18.533Z,25.57
2023-02-23T21:31:47.132Z,18.27
2023-02-23T21:34:18.861Z,22.60
2023-02-23T21:36:51.372Z,27.13
2023-02-23T21:39:21.538Z,17.30
2023-02-23T21:41:53.184Z,13.30
2023-02-23T21:44:20.235Z,26.63
2023-02-23T21:46:47.830Z,19.67
2023-02-23T21:49:18.958Z,18.40
2023-02-23T21:51:48.549Z,10.63
2023-02-23T21:54:18.526Z,21.50
2023-02-23T21:56:45.485Z,28.03
2023-02-23T21:59:12.415Z,22.97
2023-02-23T22:01:41.859Z,32.60
2023-02-23T22:04:14.793Z,22.90
2023-02-23T22:06:44.061Z,28.10
2023-02-23T22:09:12.671Z,22.97
2023-02-23T22:11:45.528Z,19.17
2023-02-23T22:14:22.163Z,33.57
2023-02-23T22:16:52.335Z,22.97
2023-02-23T22:19:24.771Z,28.80
2023-02-23T22:21:51.935Z,19.73
2023-02-23T22:24:19.429Z,13.73
2023-02-23T22:26:54.210Z,28.67
2023-02-23T22:29:24.304Z,21.03
2023-02-23T22:31:54.563Z,24.27
2023-02-23T22:34:22.248Z,8.37
2023-02-23T22:36:51.356Z,23.33
2023-02-23T22:39:18.677Z,23.83
2023-02-23T22:41:47.796Z,23.73
2023-02-23T22:44:20.330Z,19.33
2023-02-23T22:46:50.487Z,22.33
2023-02-23T22:49:19.861Z,25.63
2023-02-23T22:51:47.091Z,28.17
2023-02-23T22:54:14.296Z,14.40
2023-02-23T22:56:44.072Z,14.80
2023-02-23T22:59:17.520Z,27.57
2023-02-23T23:01:50.316Z,11.27
2023-02-23T23:04:19.432Z,5.70
2023-02-23T23:06:46.585Z,21.93
2023-02-23T23:09:14.879Z,18.37
2023-02-23T23:11:45.249Z,22.33
2023-02-23T23:14:18.246Z,23.03
2023-02-23T23:16:53.293Z,17.80
2023-02-23T23:19:25.292Z,17.70
2023-02-23T23:21:55.270Z,12.77
2023-02-23T23:24:24.865Z,12.17
2023-02-23T23:27:00.460Z,19.20
2023-02-23T23:29:32.545Z,12.50
2023-02-23T23:32:02.425Z,16.77
2023-02-23T23:34:33.432Z,21.57
2023-02-23T23:37:04.283Z,12.63
2023-02-23T23:39:31.224Z,18.20
2023-02-23T23:42:01.955Z,9.73
2023-02-23T23:44:29.344Z,9.70
2023-02-23T23:46:57.029Z,9.40
2023-02-23T23:49:27.036Z,9.50
2023-02-23T23:51:58.544Z,20.23
2023-02-23T23:54:38.698Z,9.17
2023-02-23T23:57:08.065Z,9.93
2023-02-23T23:59:35.872Z,21.90
